Time,TemperatureF,DewpointF,PressureIn,WindDirection,WindDirectionDegrees,WindSpeedMPH,WindSpeedGustMPH,Humidity,HourlyPrecipIn,Conditions,Clouds,dailyrainin,SolarRadiationWatts/m^2,SoftwareType,DateUTC
2013-03-08 00:01:00,34.0,28.0,-100.00,SE,130,7.0,14.0,79,0.00,,,0.00,0.000000,,2013-03-08 06:01:00,
2013-03-08 00:11:00,33.0,28.0,-100.00,SE,125,6.0,12.0,80,0.00,,,0.00,0.000000,,2013-03-08 06:11:00,
2013-03-08 00:32:00,33.0,28.0,-100.00,SE,125,6.0,12.0,80,0.00,,,0.00,0.000000,,2013-03-08 06:32:00,
2013-03-08 00:42:00,33.0,28.0,-100.00,SE,125,6.0,12.0,80,0.00,,,0.00,0.000000,,2013-03-08 06:42:00,
2013-03-08 00:52:00,33.0,28.0,-100.00,SE,125,6.0,12.0,80,0.00,,,0.00,0.000000,,2013-03-08 06:52:00,
2013-03-08 01:01:00,33.0,28.0,-100.00,SE,125,6.0,12.0,80,0.00,,,0.00,0.000000,,2013-03-08 07:01:00,
2013-03-08 01:11:00,32.0,27.0,-100.00,SE,138,7.0,13.0,80,0.00,,,0.00,0.000000,,2013-03-08 07:11:00,
2013-03-08 01:32:00,32.0,27.0,-100.00,SE,138,7.0,13.0,80,0.00,,,0.00,0.000000,,2013-03-08 07:32:00,
2013-03-08 01:42:00,32.0,27.0,-100.00,SE,138,7.0,13.0,80,0.00,,,0.00,0.000000,,2013-03-08 07:42:00,
2013-03-08 01:52:00,32.0,27.0,-100.00,SE,138,7.0,13.0,80,0.00,,,0.00,0.000000,,2013-03-08 07:52:00,
2013-03-08 02:01:00,32.0,27.0,-100.00,SE,138,7.0,13.0,80,0.00,,,0.00,0.000000,,2013-03-08 08:01:00,
2013-03-08 02:11:00,32.0,26.0,-100.00,SE,135,7.0,14.0,79,0.00,,,0.00,0.000000,,2013-03-08 08:11:00,
2013-03-08 02:32:00,32.0,26.0,-100.00,SE,135,7.0,14.0,79,0.00,,,0.00,0.000000,,2013-03-08 08:32:00,
2013-03-08 02:42:00,32.0,26.0,-100.00,SE,135,7.0,14.0,79,0.00,,,0.00,0.000000,,2013-03-08 08:42:00,
2013-03-08 02:52:00,32.0,26.0,-100.00,SE,135,7.0,14.0,79,0.00,,,0.00,0.000000,,2013-03-08 08:52:00,
2013-03-08 03:03:00,32.0,26.0,-100.00,SE,135,7.0,14.0,79,0.00,,,0.00,0.000000,,2013-03-08 09:03:00,
2013-03-08 03:11:00,31.0,26.0,-100.00,ESE,106,3.0,12.0,81,0.00,,,0.00,0.000000,,2013-03-08 09:11:00,
2013-03-08 03:32:00,31.0,26.0,-100.00,ESE,106,3.0,12.0,81,0.00,,,0.00,0.000000,,2013-03-08 09:32:00,
2013-03-08 03:42:00,31.0,26.0,-100.00,ESE,106,3.0,12.0,81,0.00,,,0.00,0.000000,,2013-03-08 09:42:00,
2013-03-08 03:52:00,31.0,26.0,-100.00,ESE,106,3.0,12.0,81,0.00,,,0.00,0.000000,,2013-03-08 09:52:00,
2013-03-08 04:01:00,31.0,26.0,-100.00,ESE,106,3.0,12.0,81,0.00,,,0.00,0.000000,,2013-03-08 10:01:00,
2013-03-08 04:11:00,29.0,25.0,-100.00,East,79,5.0,9.0,86,0.00,,,0.00,0.000000,,2013-03-08 10:11:00,
2013-03-08 04:32:00,29.0,25.0,-100.00,East,79,5.0,9.0,86,0.00,,,0.00,0.000000,,2013-03-08 10:32:00,
2013-03-08 04:42:00,29.0,25.0,-100.00,East,79,5.0,9.0,86,0.00,,,0.00,0.000000,,2013-03-08 10:42:00,
2013-03-08 04:52:00,29.0,25.0,-100.00,East,79,5.0,9.0,86,0.00,,,0.00,0.000000,,2013-03-08 10:52:00,
2013-03-08 05:01:00,29.0,25.0,-100.00,East,79,5.0,9.0,86,0.00,,,0.00,0.000000,,2013-03-08 11:01:00,
2013-03-08 05:11:00,30.0,26.0,-100.00,East,88,5.0,8.0,84,0.00,,,0.00,0.000000,,2013-03-08 11:11:00,
2013-03-08 05:32:00,30.0,26.0,-100.00,East,88,5.0,8.0,84,0.00,,,0.00,0.000000,,2013-03-08 11:32:00,
2013-03-08 05:42:00,30.0,26.0,-100.00,East,88,5.0,8.0,84,0.00,,,0.00,0.000000,,2013-03-08 11:42:00,
2013-03-08 05:52:00,30.0,26.0,-100.00,East,88,5.0,8.0,84,0.00,,,0.00,0.000000,,2013-03-08 11:52:00,
2013-03-08 06:01:00,30.0,26.0,-100.00,East,88,5.0,8.0,84,0.00,,,0.00,0.000000,,2013-03-08 12:01:00,
2013-03-08 06:11:00,28.0,25.0,-100.00,ENE,59,6.0,8.0,90,0.00,,,0.00,0.000000,,2013-03-08 12:11:00,
2013-03-08 06:32:00,28.0,25.0,-100.00,ENE,59,6.0,8.0,90,0.00,,,0.00,0.000000,,2013-03-08 12:32:00,
2013-03-08 06:43:00,28.0,25.0,-100.00,ENE,59,6.0,8.0,90,0.00,,,0.00,0.000000,,2013-03-08 12:43:00,
2013-03-08 06:53:00,28.0,25.0,-100.00,ENE,59,6.0,8.0,90,0.00,,,0.00,0.000000,,2013-03-08 12:53:00,
2013-03-08 07:01:00,28.0,25.0,-100.00,ENE,59,6.0,8.0,90,0.00,,,0.00,0.000000,,2013-03-08 13:01:00,
2013-03-08 07:11:00,27.0,24.0,-100.00,ENE,73,6.0,10.0,90,0.00,,,-99.99,3.000000,,2013-03-08 13:11:00,
2013-03-08 07:42:00,27.0,24.0,-100.00,ENE,73,6.0,10.0,90,0.00,,,-99.99,3.000000,,2013-03-08 13:42:00,
2013-03-08 07:52:00,27.0,24.0,-100.00,ENE,73,6.0,10.0,90,0.00,,,-99.99,3.000000,,2013-03-08 13:52:00,
2013-03-08 08:02:00,27.0,24.0,-100.00,ENE,73,6.0,10.0,90,0.00,,,-99.99,3.000000,,2013-03-08 14:02:00,
2013-03-08 08:11:00,31.0,26.0,-100.00,East,83,6.0,12.0,83,0.00,,,0.00,47.000000,,2013-03-08 14:11:00,
2013-03-08 08:32:00,31.0,26.0,-100.00,East,83,6.0,12.0,83,0.00,,,0.00,47.000000,,2013-03-08 14:32:00,
2013-03-08 08:42:00,31.0,26.0,-100.00,East,83,6.0,12.0,83,0.00,,,0.00,47.000000,,2013-03-08 14:42:00,
2013-03-08 08:52:00,31.0,26.0,-100.00,East,83,6.0,12.0,83,0.00,,,0.00,47.000000,,2013-03-08 14:52:00,
2013-03-08 09:03:00,31.0,26.0,-100.00,East,83,6.0,12.0,83,0.00,,,0.00,47.000000,,2013-03-08 15:03:00,
2013-03-08 09:11:00,37.0,28.0,-100.00,SE,136,3.0,10.0,69,0.00,,,0.00,202.000000,,2013-03-08 15:11:00,
2013-03-08 09:32:00,37.0,28.0,-100.00,SE,136,3.0,10.0,69,0.00,,,0.00,202.000000,,2013-03-08 15:32:00,
2013-03-08 09:43:00,37.0,28.0,-100.00,SE,136,3.0,10.0,69,0.00,,,0.00,202.000000,,2013-03-08 15:43:00,
2013-03-08 09:53:00,37.0,28.0,-100.00,SE,136,3.0,10.0,69,0.00,,,0.00,202.000000,,2013-03-08 15:53:00,
2013-03-08 10:01:00,37.0,28.0,-100.00,SE,136,3.0,10.0,69,0.00,,,0.00,202.000000,,2013-03-08 16:01:00,
2013-03-08 10:11:00,39.0,29.0,-100.00,East,96,7.0,11.0,67,0.00,,,0.00,362.000000,,2013-03-08 16:11:00,
2013-03-08 10:32:00,39.0,29.0,-100.00,East,96,7.0,11.0,67,0.00,,,0.00,362.000000,,2013-03-08 16:32:00,
2013-03-08 10:42:00,39.0,29.0,-100.00,East,96,7.0,11.0,67,0.00,,,0.00,362.000000,,2013-03-08 16:42:00,
2013-03-08 10:52:00,39.0,29.0,-100.00,East,96,7.0,11.0,67,0.00,,,0.00,362.000000,,2013-03-08 16:52:00,
2013-03-08 11:02:00,39.0,29.0,-100.00,East,96,7.0,11.0,67,0.00,,,0.00,362.000000,,2013-03-08 17:02:00,
2013-03-08 11:11:00,40.0,30.0,-100.00,ESE,111,6.0,11.0,68,0.00,,,0.00,346.000000,,2013-03-08 17:11:00,
2013-03-08 11:32:00,40.0,30.0,-100.00,ESE,111,6.0,11.0,68,0.00,,,0.00,346.000000,,2013-03-08 17:32:00,
2013-03-08 11:42:00,40.0,30.0,-100.00,ESE,111,6.0,11.0,68,0.00,,,0.00,346.000000,,2013-03-08 17:42:00,
2013-03-08 11:52:00,40.0,30.0,-100.00,ESE,111,6.0,11.0,68,0.00,,,0.00,346.000000,,2013-03-08 17:52:00,
2013-03-08 12:02:00,40.0,30.0,-100.00,ESE,111,6.0,11.0,68,0.00,,,0.00,346.000000,,2013-03-08 18:02:00,
2013-03-08 12:11:00,46.0,34.0,-100.00,SE,139,5.0,13.0,62,0.00,,,0.00,538.000000,,2013-03-08 18:11:00,
2013-03-08 12:32:00,46.0,34.0,-100.00,SE,139,5.0,13.0,62,0.00,,,0.00,538.000000,,2013-03-08 18:32:00,
2013-03-08 12:42:00,46.0,34.0,-100.00,SE,139,5.0,13.0,62,0.00,,,0.00,538.000000,,2013-03-08 18:42:00,
2013-03-08 12:52:00,46.0,34.0,-100.00,SE,139,5.0,13.0,62,0.00,,,0.00,538.000000,,2013-03-08 18:52:00,
2013-03-08 13:01:00,46.0,34.0,-100.00,SE,139,5.0,13.0,62,0.00,,,0.00,538.000000,,2013-03-08 19:01:00,
2013-03-08 13:11:00,47.0,33.0,-100.00,SE,125,6.0,12.0,57,0.00,,,0.00,486.000000,,2013-03-08 19:11:00,
2013-03-08 13:42:00,47.0,33.0,-100.00,SE,125,6.0,12.0,57,0.00,,,0.00,486.000000,,2013-03-08 19:42:00,
2013-03-08 13:52:00,47.0,33.0,-100.00,SE,125,6.0,12.0,57,0.00,,,0.00,486.000000,,2013-03-08 19:52:00,
2013-03-08 14:01:00,47.0,33.0,-100.00,SE,125,6.0,12.0,57,0.00,,,0.00,486.000000,,2013-03-08 20:01:00,
2013-03-08 14:11:00,48.0,36.0,-100.00,East,95,6.0,14.0,63,0.00,,,0.00,219.000000,,2013-03-08 20:11:00,
2013-03-08 14:32:00,48.0,36.0,-100.00,East,95,6.0,14.0,63,0.00,,,0.00,219.000000,,2013-03-08 20:32:00,
2013-03-08 14:42:00,48.0,36.0,-100.00,East,95,6.0,14.0,63,0.00,,,0.00,219.000000,,2013-03-08 20:42:00,
2013-03-08 14:53:00,48.0,36.0,-100.00,East,95,6.0,14.0,63,0.00,,,0.00,219.000000,,2013-03-08 20:53:00,
2013-03-08 15:02:00,48.0,36.0,-100.00,East,95,6.0,14.0,63,0.00,,,0.00,219.000000,,2013-03-08 21:02:00,
2013-03-08 15:11:00,52.0,36.0,-100.00,SE,124,7.0,14.0,55,0.00,,,0.00,249.000000,,2013-03-08 21:11:00,
2013-03-08 15:33:00,52.0,36.0,-100.00,SE,124,7.0,14.0,55,0.00,,,0.00,249.000000,,2013-03-08 21:33:00,
2013-03-08 15:42:00,52.0,36.0,-100.00,SE,124,7.0,14.0,55,0.00,,,0.00,249.000000,,2013-03-08 21:42:00,
2013-03-08 15:52:00,52.0,36.0,-100.00,SE,124,7.0,14.0,55,0.00,,,0.00,249.000000,,2013-03-08 21:52:00,
2013-03-08 16:01:00,52.0,36.0,-100.00,SE,124,7.0,14.0,55,0.00,,,0.00,249.000000,,2013-03-08 22:01:00,
2013-03-08 16:11:00,51.0,39.0,-100.00,East,89,8.0,13.0,63,0.00,,,-99.99,323.000000,,2013-03-08 22:11:00,
2013-03-08 16:42:00,51.0,39.0,-100.00,East,89,8.0,13.0,63,0.00,,,-99.99,323.000000,,2013-03-08 22:42:00,
2013-03-08 16:53:00,51.0,39.0,-100.00,East,89,8.0,13.0,63,0.00,,,-99.99,323.000000,,2013-03-08 22:53:00,
2013-03-08 17:01:00,51.0,39.0,-100.00,East,89,8.0,13.0,63,0.00,,,-99.99,323.000000,,2013-03-08 23:01:00,
2013-03-08 17:11:00,48.0,39.0,-100.00,East,80,5.0,14.0,71,0.00,,,0.00,97.000000,,2013-03-08 23:11:00,
2013-03-08 17:32:00,48.0,39.0,-100.00,East,80,5.0,14.0,71,0.00,,,0.00,97.000000,,2013-03-08 23:32:00,
2013-03-08 17:42:00,48.0,39.0,-100.00,East,80,5.0,14.0,71,0.00,,,0.00,97.000000,,2013-03-08 23:42:00,
2013-03-08 17:53:00,48.0,39.0,-100.00,East,80,5.0,14.0,71,0.00,,,0.00,97.000000,,2013-03-08 23:53:00,
2013-03-08 18:02:00,48.0,39.0,-100.00,East,80,5.0,14.0,71,0.00,,,0.00,97.000000,,2013-03-09 00:02:00,
2013-03-08 18:11:00,46.0,37.0,-100.00,East,91,10.0,17.0,71,0.00,,,0.00,27.000000,,2013-03-09 00:11:00,
2013-03-08 18:42:00,46.0,37.0,-100.00,East,91,10.0,17.0,71,0.00,,,0.00,27.000000,,2013-03-09 00:42:00,
2013-03-08 18:52:00,46.0,37.0,-100.00,East,91,10.0,17.0,71,0.00,,,0.00,27.000000,,2013-03-09 00:52:00,
2013-03-08 19:01:00,46.0,37.0,-100.00,East,91,10.0,17.0,71,0.00,,,0.00,27.000000,,2013-03-09 01:01:00,
2013-03-08 21:11:00,44.0,36.0,-100.00,SSE,150,7.0,16.0,73,-99.99,,,0.00,0.000000,,2013-03-09 03:11:00,
2013-03-08 21:32:00,44.0,36.0,-100.00,SSE,150,7.0,16.0,73,-99.99,,,0.00,0.000000,,2013-03-09 03:32:00,
2013-03-08 21:42:00,44.0,36.0,-100.00,SSE,150,7.0,16.0,73,-99.99,,,0.00,0.000000,,2013-03-09 03:42:00,
2013-03-08 21:52:00,44.0,36.0,-100.00,SSE,150,7.0,16.0,73,-99.99,,,0.00,0.000000,,2013-03-09 03:52:00,
2013-03-08 22:01:00,44.0,36.0,-100.00,SSE,150,7.0,16.0,73,-99.99,,,0.00,0.000000,,2013-03-09 04:01:00,
2013-03-08 22:11:00,42.0,37.0,-100.00,SSE,147,7.0,17.0,83,0.00,,,0.00,0.000000,,2013-03-09 04:11:00,
2013-03-08 22:32:00,42.0,37.0,-100.00,SSE,147,7.0,17.0,83,0.00,,,0.00,0.000000,,2013-03-09 04:32:00,
2013-03-08 22:42:00,42.0,37.0,-100.00,SSE,147,7.0,17.0,83,0.00,,,0.00,0.000000,,2013-03-09 04:42:00,
2013-03-08 22:52:00,42.0,37.0,-100.00,SSE,147,7.0,17.0,83,0.00,,,0.00,0.000000,,2013-03-09 04:52:00,
2013-03-08 23:02:00,42.0,37.0,-100.00,SSE,147,7.0,17.0,83,0.00,,,0.00,0.000000,,2013-03-09 05:02:00,
2013-03-08 23:11:00,41.0,37.0,-100.00,SE,142,8.0,16.0,86,0.01,,,0.01,0.000000,,2013-03-09 05:11:00,
2013-03-08 23:32:00,41.0,37.0,-100.00,SE,142,8.0,16.0,86,0.01,,,0.01,0.000000,,2013-03-09 05:32:00,
2013-03-08 23:43:00,41.0,37.0,-100.00,SE,142,8.0,16.0,86,0.01,,,0.01,0.000000,,2013-03-09 05:43:00,
2013-03-08 23:53:00,41.0,37.0,-100.00,SE,142,8.0,16.0,86,0.01,,,0.01,0.000000,,2013-03-09 05:53:00,